Time;durP1;ratioP1;P1;durP2;ratioP2;P2;SDS_P1;SDS_P2;PMS_P1;PMS_P2;Temp;Humidity;BMP_temperature;BMP_pressure;BME280_temperature;BME280_humidity;BME280_pressure;Samples;Min_cycle;Max_cycle;Signal;HPM_P1;HPM_P2
2023/07/31 00:01:46;;;;;;;10.43;7.90;;;24.50;98.40;;;;;;4969268;28;20079;-80
2023/07/31 00:04:14;;;;;;;11.32;7.82;;;24.20;99.60;;;;;;4921559;29;20058;-78
2023/07/31 00:06:42;;;;;;;13.23;8.20;;;24.20;99.90;;;;;;4954195;28;20054;-77
2023/07/31 00:09:10;;;;;;;11.30;8.57;;;24.20;99.90;;;;;;4956635;29;20118;-81
2023/07/31 00:11:38;;;;;;;10.55;8.65;;;24.20;99.90;;;;;;4968927;28;20523;-81
2023/07/31 00:14:05;;;;;;;12.73;9.23;;;24.40;99.90;;;;;;4908900;29;20134;-81
2023/07/31 00:16:33;;;;;;;10.73;8.88;;;24.30;99.90;;;;;;4948081;29;20059;-79
2023/07/31 00:19:00;;;;;;;11.27;9.00;;;24.30;99.90;;;;;;4957038;28;20615;-79
2023/07/31 00:21:28;;;;;;;10.73;8.30;;;24.30;99.90;;;;;;4947214;29;20055;-81
2023/07/31 00:23:55;;;;;;;11.95;8.95;;;24.20;99.90;;;;;;4956991;29;20143;-78
2023/07/31 00:26:23;;;;;;;9.98;7.57;;;24.40;99.90;;;;;;4948240;29;20051;-81
2023/07/31 00:28:50;;;;;;;9.95;7.63;;;24.20;99.90;;;;;;4933441;29;20159;-79
2023/07/31 00:31:17;;;;;;;10.90;8.55;;;24.20;99.90;;;;;;4961225;28;20051;-82
2023/07/31 00:33:45;;;;;;;10.23;8.15;;;24.20;99.90;;;;;;4940480;29;20055;-83
2023/07/31 00:36:12;;;;;;;10.93;8.55;;;24.20;99.90;;;;;;4961192;28;20043;-79
2023/07/31 00:38:40;;;;;;;10.23;8.52;;;24.20;99.90;;;;;;4930994;28;20058;-78
2023/07/31 00:41:07;;;;;;;10.45;8.88;;;24.30;99.90;;;;;;4925728;29;20102;-78
2023/07/31 00:43:34;;;;;;;9.85;8.02;;;24.40;99.90;;;;;;4955100;28;20047;-75
2023/07/31 00:46:02;;;;;;;10.95;7.95;;;24.50;99.90;;;;;;4938163;29;20070;-77
2023/07/31 00:48:30;;;;;;;10.27;7.80;;;24.20;99.90;;;;;;4949701;28;20407;-76
2023/07/31 00:50:57;;;;;;;9.98;7.28;;;24.40;99.90;;;;;;4945780;28;20134;-78
2023/07/31 00:53:25;;;;;;;10.00;7.70;;;24.10;99.90;;;;;;4951390;28;20450;-79
2023/07/31 00:55:53;;;;;;;9.63;7.80;;;24.00;99.90;;;;;;4962174;28;20065;-75
2023/07/31 00:58:21;;;;;;;11.70;8.45;;;24.10;99.90;;;;;;4961029;28;20065;-75
2023/07/31 01:00:49;;;;;;;10.65;8.25;;;24.00;99.90;;;;;;4940124;29;20467;-76
2023/07/31 01:03:17;;;;;;;10.90;7.90;;;23.90;99.90;;;;;;4957151;28;20058;-75
2023/07/31 01:06:24;;;;;;;11.00;8.00;;;23.90;99.90;;;;;;4937030;28;20134;-80
2023/07/31 01:09:16;;;;;;;11.45;8.00;;;23.90;99.90;;;;;;4945243;29;20078;-78
2023/07/31 01:11:52;;;;;;;10.55;8.63;;;23.90;99.90;;;;;;4939049;29;20459;-79
2023/07/31 01:14:20;;;;;;;11.05;8.55;;;24.10;99.90;;;;;;4956510;28;20059;-76
2023/07/31 01:16:47;;;;;;;11.15;8.27;;;24.00;99.90;;;;;;4962667;28;20039;-77
2023/07/31 01:19:17;;;;;;;10.00;7.47;;;24.30;99.90;;;;;;4967630;28;20047;-77
2023/07/31 01:22:14;;;;;;;10.15;8.23;;;23.80;99.90;;;;;;4950292;28;20047;-79
2023/07/31 01:25:16;;;;;;;10.75;8.20;;;23.90;99.90;;;;;;4937122;29;20470;-80
2023/07/31 01:27:55;;;;;;;10.00;7.25;;;23.90;99.90;;;;;;4933659;29;20522;-79
2023/07/31 01:30:27;;;;;;;10.45;8.38;;;23.90;99.90;;;;;;4936145;28;20500;-79
2023/07/31 01:32:57;;;;;;;9.88;7.72;;;24.30;99.90;;;;;;4957292;28;20102;-79
2023/07/31 01:35:25;;;;;;;8.85;7.35;;;24.50;99.90;;;;;;4940935;28;20055;-79
2023/07/31 01:37:54;;;;;;;13.23;8.40;;;24.70;99.90;;;;;;4921249;29;20578;-79
2023/07/31 01:40:21;;;;;;;11.45;7.35;;;24.70;99.90;;;;;;4947431;28;20050;-78
2023/07/31 01:42:48;;;;;;;10.48;7.68;;;24.60;99.90;;;;;;4921456;29;20073;-79
2023/07/31 01:45:15;;;;;;;11.80;7.43;;;24.60;99.90;;;;;;4956793;28;20062;-80
2023/07/31 01:47:43;;;;;;;9.75;6.32;;;24.60;99.90;;;;;;4954532;28;20062;-79
2023/07/31 01:50:10;;;;;;;10.00;6.57;;;24.40;99.90;;;;;;4954421;28;20048;-79
2023/07/31 01:52:37;;;;;;;8.45;6.25;;;24.50;99.90;;;;;;4924939;28;20055;-80
2023/07/31 01:55:05;;;;;;;9.60;6.05;;;24.50;99.90;;;;;;4950509;28;20055;-78
2023/07/31 01:57:32;;;;;;;10.10;6.30;;;24.50;99.90;;;;;;4959037;28;20093;-83
2023/07/31 01:59:59;;;;;;;9.27;5.60;;;24.40;99.90;;;;;;4960904;28;20491;-77
2023/07/31 02:02:26;;;;;;;7.90;5.68;;;24.20;99.90;;;;;;4955074;28;20415;-77
2023/07/31 02:04:54;;;;;;;10.63;6.10;;;24.10;99.90;;;;;;4957844;28;20110;-81
2023/07/31 02:07:21;;;;;;;8.93;5.50;;;23.80;99.90;;;;;;4954216;28;20411;-80
2023/07/31 02:09:49;;;;;;;7.68;5.53;;;23.80;99.90;;;;;;4947629;29;20071;-83
2023/07/31 02:12:16;;;;;;;8.18;5.60;;;23.80;99.90;;;;;;4960952;28;20051;-78
2023/07/31 02:14:45;;;;;;;9.55;6.40;;;23.60;99.90;;;;;;4949650;28;20537;-79
2023/07/31 02:17:12;;;;;;;10.05;6.07;;;23.80;99.90;;;;;;4962551;28;20047;-78
2023/07/31 02:19:39;;;;;;;8.85;5.70;;;23.90;99.90;;;;;;4954245;28;20054;-77
2023/07/31 02:22:07;;;;;;;8.90;5.78;;;24.00;99.90;;;;;;4947540;28;20383;-78
2023/07/31 02:24:34;;;;;;;8.85;5.95;;;24.00;99.90;;;;;;4960677;28;20102;-80
2023/07/31 02:27:01;;;;;;;10.85;6.68;;;24.10;99.90;;;;;;4953710;28;20118;-78
2023/07/31 02:29:28;;;;;;;9.00;6.28;;;24.10;99.90;;;;;;4928197;29;20134;-78
2023/07/31 02:31:56;;;;;;;8.93;6.35;;;23.80;99.90;;;;;;4963455;28;20074;-79
2023/07/31 02:34:23;;;;;;;8.50;6.15;;;23.80;99.90;;;;;;4941507;28;20414;-80
2023/07/31 02:36:50;;;;;;;9.48;6.03;;;23.60;99.90;;;;;;4942420;29;20051;-79
2023/07/31 02:39:18;;;;;;;8.60;5.90;;;23.80;99.90;;;;;;4958906;28;20123;-80
2023/07/31 02:41:45;;;;;;;7.80;5.95;;;23.80;99.90;;;;;;4959663;28;20056;-78
2023/07/31 02:44:14;;;;;;;9.32;6.60;;;23.70;99.90;;;;;;4952782;28;20047;-78
2023/07/31 02:46:41;;;;;;;9.43;5.78;;;23.60;99.90;;;;;;4936037;29;20122;-79
2023/07/31 02:49:08;;;;;;;8.43;6.75;;;23.60;99.90;;;;;;4941864;28;20054;-80
2023/07/31 02:51:36;;;;;;;11.32;6.75;;;23.70;99.90;;;;;;4952292;28;20106;-79
2023/07/31 02:54:03;;;;;;;8.10;6.25;;;23.80;99.90;;;;;;4946053;28;20061;-80
2023/07/31 02:56:30;;;;;;;9.48;6.25;;;23.70;99.90;;;;;;4941821;29;20058;-78
2023/07/31 02:58:58;;;;;;;8.48;5.90;;;23.70;99.90;;;;;;4943314;29;20103;-81
2023/07/31 03:01:25;;;;;;;7.80;5.68;;;23.60;99.90;;;;;;4938253;29;20070;-83
2023/07/31 03:03:53;;;;;;;7.65;5.70;;;23.50;99.90;;;;;;4944045;28;20119;-80
2023/07/31 03:06:20;;;;;;;12.00;6.55;;;23.50;99.90;;;;;;4952005;28;20134;-80
2023/07/31 03:08:47;;;;;;;9.75;6.15;;;23.50;99.90;;;;;;4930492;29;20098;-79
2023/07/31 03:11:15;;;;;;;8.45;6.22;;;23.40;99.90;;;;;;4935741;29;20059;-79
2023/07/31 03:13:42;;;;;;;9.10;6.07;;;23.30;99.90;;;;;;4953456;28;20051;-79
2023/07/31 03:16:09;;;;;;;10.48;6.30;;;23.30;99.90;;;;;;4922013;28;20503;-78
2023/07/31 03:18:37;;;;;;;11.05;6.97;;;23.10;99.90;;;;;;4945192;29;20059;-78
2023/07/31 03:21:04;;;;;;;9.18;6.55;;;23.10;99.90;;;;;;4911673;28;20047;-79
2023/07/31 03:23:33;;;;;;;12.82;7.32;;;22.90;99.90;;;;;;4946078;29;20047;-78
2023/07/31 03:26:05;;;;;;;8.43;6.97;;;23.10;99.90;;;;;;4935781;29;20055;-78
2023/07/31 03:28:33;;;;;;;12.10;6.90;;;23.10;99.90;;;;;;4955452;28;20126;-77
2023/07/31 03:31:01;;;;;;;10.05;6.68;;;23.20;99.90;;;;;;4935759;29;20415;-79
2023/07/31 03:33:28;;;;;;;10.35;7.53;;;23.20;99.90;;;;;;4919851;28;20427;-79
2023/07/31 03:35:57;;;;;;;10.02;7.10;;;23.20;99.90;;;;;;4962916;28;20156;-78
2023/07/31 03:38:24;;;;;;;10.02;7.13;;;23.20;99.90;;;;;;4935507;29;20491;-79
2023/07/31 03:40:51;;;;;;;11.65;6.93;;;23.20;99.90;;;;;;4957401;28;20050;-87
2023/07/31 03:43:19;;;;;;;11.45;6.68;;;23.20;99.90;;;;;;4948710;28;20471;-79
2023/07/31 03:45:46;;;;;;;10.85;7.57;;;23.10;99.90;;;;;;4964729;28;20047;-80
2023/07/31 03:48:15;;;;;;;11.75;7.82;;;23.30;99.90;;;;;;4956766;28;20082;-80
2023/07/31 03:50:43;;;;;;;11.95;7.40;;;23.30;99.90;;;;;;4955141;29;20059;-79
2023/07/31 03:53:10;;;;;;;13.35;8.05;;;23.50;99.90;;;;;;4946455;28;20051;-78
2023/07/31 03:55:39;;;;;;;12.07;7.53;;;23.70;99.90;;;;;;4936725;29;20048;-80
2023/07/31 03:58:06;;;;;;;9.85;6.75;;;24.00;99.90;;;;;;4937174;29;20047;-79
2023/07/31 04:00:34;;;;;;;8.45;6.25;;;24.10;99.90;;;;;;4936679;29;20102;-78
2023/07/31 04:03:01;;;;;;;9.43;7.13;;;24.20;99.90;;;;;;4937791;29;20472;-78
2023/07/31 04:05:32;;;;;;;11.25;6.63;;;24.20;99.90;;;;;;4937510;29;20083;-76
2023/07/31 04:07:59;;;;;;;12.52;7.47;;;24.30;99.90;;;;;;4935459;29;20067;-78
2023/07/31 04:10:26;;;;;;;10.20;6.75;;;24.40;99.90;;;;;;4942566;29;20566;-78
2023/07/31 04:12:57;;;;;;;11.15;7.32;;;24.30;99.90;;;;;;4949447;29;20051;-78
2023/07/31 04:15:24;;;;;;;10.65;6.40;;;24.20;99.90;;;;;;4941882;29;20040;-77
2023/07/31 04:17:51;;;;;;;10.35;6.70;;;24.10;99.90;;;;;;4939068;29;20111;-81
2023/07/31 04:20:19;;;;;;;8.73;6.65;;;24.00;99.90;;;;;;4937339;29;20059;-79
2023/07/31 04:22:46;;;;;;;8.77;6.40;;;24.20;99.90;;;;;;4936987;29;20543;-79
2023/07/31 04:25:15;;;;;;;7.97;5.88;;;24.30;99.90;;;;;;4938690;29;20115;-80
2023/07/31 04:27:42;;;;;;;12.43;6.43;;;24.20;99.90;;;;;;4936958;29;20044;-79
2023/07/31 04:30:09;;;;;;;10.32;6.60;;;24.20;99.90;;;;;;4936444;29;20135;-78
2023/07/31 04:32:37;;;;;;;10.13;6.10;;;24.40;99.90;;;;;;4924227;29;20048;-79
2023/07/31 04:35:04;;;;;;;9.48;6.00;;;24.30;99.90;;;;;;4932897;29;20616;-79
2023/07/31 04:37:32;;;;;;;11.13;6.43;;;24.40;99.90;;;;;;4909173;29;20484;-82
2023/07/31 04:39:59;;;;;;;9.27;6.50;;;24.40;99.90;;;;;;4936037;29;20063;-80
2023/07/31 04:42:26;;;;;;;10.48;6.70;;;24.20;99.90;;;;;;4934195;29;20516;-80
2023/07/31 04:44:54;;;;;;;11.35;6.95;;;24.40;99.90;;;;;;4936881;29;20066;-81
2023/07/31 04:47:21;;;;;;;11.15;6.70;;;24.40;99.90;;;;;;4937431;29;20048;-78
2023/07/31 04:49:49;;;;;;;10.45;6.57;;;24.30;99.90;;;;;;4940585;29;20511;-87
2023/07/31 04:52:16;;;;;;;164.07;111.28;;;24.30;99.90;;;;;;4939899;29;20050;-85
2023/07/31 04:54:43;;;;;;;138.18;100.78;;;24.40;99.90;;;;;;4928482;29;20596;-86
2023/07/31 04:57:10;;;;;;;43.10;33.60;;;24.40;99.90;;;;;;4940659;29;20498;-85
2023/07/31 04:59:38;;;;;;;15.73;12.20;;;24.30;99.90;;;;;;4942617;29;20063;-86
2023/07/31 05:02:06;;;;;;;76.47;55.00;;;24.20;99.90;;;;;;4937025;29;20480;-87
2023/07/31 05:04:34;;;;;;;50.13;36.60;;;24.10;99.90;;;;;;4918307;29;20138;-87
2023/07/31 05:07:01;;;;;;;69.82;51.55;;;24.20;99.90;;;;;;4949014;29;20582;-83
2023/07/31 05:09:29;;;;;;;13.98;10.90;;;24.30;99.90;;;;;;4950559;28;20529;-79
2023/07/31 05:11:56;;;;;;;12.77;9.63;;;24.30;99.90;;;;;;4941007;29;20527;-84
2023/07/31 05:14:24;;;;;;;12.98;8.05;;;24.20;99.90;;;;;;4919385;29;20396;-84
2023/07/31 05:16:51;;;;;;;12.75;8.75;;;24.00;99.90;;;;;;4936480;29;20051;-82
2023/07/31 05:19:19;;;;;;;11.18;7.63;;;24.00;99.90;;;;;;4938571;29;20051;-79
2023/07/31 05:21:46;;;;;;;13.18;7.63;;;24.00;99.90;;;;;;4939265;29;20445;-82
2023/07/31 05:24:13;;;;;;;11.07;6.90;;;23.80;99.90;;;;;;4936399;29;20055;-81
2023/07/31 05:26:41;;;;;;;8.65;6.53;;;23.50;99.90;;;;;;4943310;29;20047;-79
2023/07/31 05:29:09;;;;;;;9.95;6.85;;;23.50;99.90;;;;;;4940379;29;20062;-80
2023/07/31 05:31:38;;;;;;;11.75;6.68;;;23.40;99.90;;;;;;4937580;29;20048;-81
2023/07/31 05:34:05;;;;;;;9.10;6.47;;;23.40;99.90;;;;;;4937951;29;20652;-84
2023/07/31 05:36:33;;;;;;;9.50;7.10;;;23.50;99.90;;;;;;4947993;29;20051;-86
2023/07/31 05:39:06;;;;;;;8.60;6.40;;;23.80;99.90;;;;;;4938442;29;20552;-82
2023/07/31 05:41:34;;;;;;;7.85;5.13;;;24.20;99.90;;;;;;4940110;29;20488;-85
2023/07/31 05:44:01;;;;;;;14.05;8.45;;;23.90;99.90;;;;;;4937999;29;20052;-84
2023/07/31 05:46:29;;;;;;;9.20;6.82;;;23.60;99.90;;;;;;4937872;29;20048;-87
2023/07/31 05:49:00;;;;;;;11.93;6.43;;;23.60;99.90;;;;;;4903183;29;20051;-82
2023/07/31 05:51:28;;;;;;;8.73;5.93;;;23.50;99.90;;;;;;4913532;29;20056;-85
2023/07/31 05:53:55;;;;;;;10.73;6.30;;;23.50;99.90;;;;;;4934100;29;20055;-83
2023/07/31 05:56:22;;;;;;;7.43;5.15;;;23.70;99.90;;;;;;4938846;29;20491;-80
2023/07/31 05:58:50;;;;;;;12.35;7.35;;;23.60;99.90;;;;;;4937267;29;20055;-80
2023/07/31 06:01:18;;;;;;;12.85;5.72;;;23.80;99.90;;;;;;4936487;29;20047;-81
2023/07/31 06:03:45;;;;;;;9.88;5.78;;;24.00;99.90;;;;;;4924275;29;20460;-82
2023/07/31 06:06:13;;;;;;;9.50;5.82;;;23.80;99.90;;;;;;4935046;29;20051;-82
2023/07/31 06:08:41;;;;;;;10.18;6.82;;;23.90;99.90;;;;;;4936207;29;20056;-82
2023/07/31 06:11:09;;;;;;;12.38;6.28;;;24.10;99.90;;;;;;4936288;29;20142;-80
2023/07/31 06:13:36;;;;;;;11.73;6.90;;;24.50;99.90;;;;;;4938286;29;20428;-83
2023/07/31 06:16:06;;;;;;;7.78;4.97;;;24.70;99.90;;;;;;4935781;29;20075;-80
2023/07/31 06:18:34;;;;;;;11.85;5.53;;;24.40;99.90;;;;;;4935393;29;20527;-82
2023/07/31 06:21:01;;;;;;;11.65;5.40;;;24.70;99.90;;;;;;4920853;29;20071;-81
2023/07/31 06:23:29;;;;;;;9.57;5.57;;;25.00;99.90;;;;;;4934270;29;20087;-81
2023/07/31 06:25:57;;;;;;;8.82;5.80;;;24.80;99.90;;;;;;4934325;29;20048;-80
2023/07/31 06:28:32;;;;;;;7.72;5.72;;;24.60;99.90;;;;;;4928962;29;20139;-81
2023/07/31 06:30:59;;;;;;;10.00;5.70;;;24.70;99.90;;;;;;4928554;29;20059;-81
2023/07/31 06:33:27;;;;;;;8.95;5.60;;;24.60;99.90;;;;;;4926242;29;20130;-82
2023/07/31 06:35:55;;;;;;;9.27;6.65;;;25.00;99.90;;;;;;4932041;29;20056;-81
2023/07/31 06:38:24;;;;;;;8.45;5.82;;;25.00;99.90;;;;;;4945156;29;20385;-81
2023/07/31 06:40:51;;;;;;;12.43;5.68;;;25.20;99.90;;;;;;4932824;29;20657;-81
2023/07/31 06:43:19;;;;;;;8.68;5.45;;;25.20;99.90;;;;;;4933236;29;20055;-81
2023/07/31 06:45:47;;;;;;;12.38;6.30;;;25.30;99.90;;;;;;4933215;29;20539;-81
2023/07/31 06:48:14;;;;;;;10.52;5.85;;;25.50;99.90;;;;;;4922463;29;20428;-80
2023/07/31 06:50:42;;;;;;;8.00;5.30;;;25.60;99.80;;;;;;4931264;29;20111;-81
2023/07/31 06:53:09;;;;;;;6.50;4.10;;;25.70;99.20;;;;;;4935735;29;20118;-81
2023/07/31 06:55:37;;;;;;;6.60;4.45;;;25.70;97.60;;;;;;4921190;29;20385;-81
2023/07/31 06:58:04;;;;;;;7.72;4.60;;;25.80;95.90;;;;;;4913712;29;20051;-81
2023/07/31 07:00:32;;;;;;;8.45;4.35;;;25.90;95.40;;;;;;4935918;29;20467;-82
2023/07/31 07:03:00;;;;;;;7.72;4.25;;;25.90;95.20;;;;;;4933869;29;20087;-80
2023/07/31 07:05:27;;;;;;;7.35;4.40;;;25.90;94.60;;;;;;4933295;29;20047;-80
2023/07/31 07:07:55;;;;;;;6.88;4.50;;;26.00;94.10;;;;;;4933959;29;20119;-80
2023/07/31 07:10:25;;;;;;;6.25;4.28;;;26.10;94.00;;;;;;4918999;29;20158;-82
2023/07/31 07:12:53;;;;;;;10.32;4.40;;;26.10;93.80;;;;;;4933565;29;20440;-80
2023/07/31 07:15:20;;;;;;;6.63;4.47;;;26.20;93.40;;;;;;4935593;29;20128;-81
2023/07/31 07:17:47;;;;;;;7.88;5.05;;;26.30;93.20;;;;;;4938253;29;20098;-82
2023/07/31 07:20:15;;;;;;;7.38;4.40;;;26.30;92.90;;;;;;4940905;29;20051;-81
2023/07/31 07:22:45;;;;;;;7.72;4.57;;;26.30;92.50;;;;;;4938119;29;20079;-80
2023/07/31 07:25:12;;;;;;;8.30;5.70;;;26.30;92.40;;;;;;4938813;29;20542;-80
2023/07/31 07:27:39;;;;;;;10.57;5.20;;;26.30;92.50;;;;;;4947906;29;20594;-81
2023/07/31 07:30:07;;;;;;;7.13;4.28;;;26.40;91.80;;;;;;4949230;29;20684;-81
2023/07/31 07:32:35;;;;;;;7.07;4.93;;;26.30;91.20;;;;;;4937962;29;20076;-81
2023/07/31 07:35:04;;;;;;;7.43;4.95;;;26.30;91.20;;;;;;4939911;29;20059;-81
2023/07/31 07:37:33;;;;;;;6.45;4.13;;;26.30;91.10;;;;;;4938811;29;20043;-81
2023/07/31 07:40:01;;;;;;;6.85;4.45;;;26.40;91.30;;;;;;4941247;29;20064;-81
2023/07/31 07:42:29;;;;;;;10.20;5.07;;;26.40;91.20;;;;;;4937422;29;20048;-82
2023/07/31 07:44:56;;;;;;;6.35;3.95;;;26.40;90.90;;;;;;4939445;29;20452;-80
2023/07/31 07:47:24;;;;;;;6.68;4.20;;;26.20;90.70;;;;;;4928886;29;20112;-81
2023/07/31 07:49:55;;;;;;;6.80;4.03;;;26.30;90.60;;;;;;4948530;29;20061;-81
2023/07/31 07:52:22;;;;;;;7.28;4.82;;;26.40;90.20;;;;;;4956906;28;20044;-81
2023/07/31 07:54:50;;;;;;;6.82;4.10;;;26.50;90.20;;;;;;4964272;28;20063;-81
2023/07/31 07:57:18;;;;;;;5.53;3.92;;;26.60;90.00;;;;;;4940735;29;20118;-81
2023/07/31 07:59:45;;;;;;;6.30;3.90;;;26.60;89.90;;;;;;4939516;29;20562;-80
2023/07/31 08:02:12;;;;;;;6.38;3.88;;;26.30;88.70;;;;;;4956150;28;20554;-79
2023/07/31 08:04:40;;;;;;;7.47;4.15;;;26.40;89.80;;;;;;4956952;28;20130;-78
2023/07/31 08:07:07;;;;;;;6.50;4.38;;;26.60;89.50;;;;;;4957360;29;20459;-79
2023/07/31 08:09:34;;;;;;;7.55;4.25;;;26.70;88.10;;;;;;4956560;28;20066;-80
2023/07/31 08:12:03;;;;;;;6.05;4.00;;;26.70;88.30;;;;;;4956246;28;20066;-79
2023/07/31 08:14:30;;;;;;;7.05;4.15;;;26.70;88.00;;;;;;4956591;28;20051;-80
2023/07/31 08:17:00;;;;;;;8.85;4.30;;;26.70;87.80;;;;;;4956698;29;20052;-80
2023/07/31 08:19:27;;;;;;;7.93;3.38;;;26.80;86.40;;;;;;4956838;28;20055;-81
2023/07/31 08:21:54;;;;;;;6.47;3.90;;;26.80;85.00;;;;;;4957724;28;20043;-80
2023/07/31 08:24:24;;;;;;;6.05;3.60;;;26.80;84.40;;;;;;4957431;29;20492;-79
2023/07/31 08:26:55;;;;;;;5.97;3.20;;;26.70;84.30;;;;;;4961449;29;20524;-81
2023/07/31 08:29:22;;;;;;;5.05;2.90;;;26.80;83.00;;;;;;4957311;28;20047;-80
2023/07/31 08:31:49;;;;;;;7.68;4.10;;;26.70;83.60;;;;;;4956876;29;20055;-80
2023/07/31 08:34:17;;;;;;;4.75;3.22;;;26.70;84.50;;;;;;4958358;28;20055;-83
2023/07/31 08:36:44;;;;;;;5.65;3.65;;;26.30;82.70;;;;;;4956279;28;20074;-77
2023/07/31 08:39:12;;;;;;;4.70;2.88;;;26.60;82.70;;;;;;4940039;29;20052;-79
2023/07/31 08:41:39;;;;;;;5.80;3.33;;;26.30;82.40;;;;;;4994288;23;20126;-81
2023/07/31 08:44:11;;;;;;;5.75;3.45;;;26.70;81.70;;;;;;4929214;28;20052;-81
2023/07/31 08:46:39;;;;;;;6.95;3.20;;;26.80;81.20;;;;;;4941225;29;20058;-82
2023/07/31 08:49:09;;;;;;;7.93;2.88;;;26.90;80.70;;;;;;4942224;29;20070;-82
2023/07/31 08:51:41;;;;;;;5.45;3.33;;;26.80;79.40;;;;;;4942678;29;20051;-84
2023/07/31 08:54:09;;;;;;;6.50;3.00;;;26.70;80.30;;;;;;4945538;29;20146;-83
2023/07/31 08:56:37;;;;;;;4.80;3.03;;;26.90;79.90;;;;;;4959001;28;20046;-83
2023/07/31 08:59:08;;;;;;;5.10;3.00;;;27.00;79.50;;;;;;4959893;28;20094;-80
2023/07/31 09:01:42;;;;;;;5.40;3.10;;;27.10;78.40;;;;;;4942899;28;20040;-81
2023/07/31 09:04:14;;;;;;;5.55;2.92;;;27.20;77.90;;;;;;4945799;29;20122;-85
2023/07/31 09:06:43;;;;;;;5.72;2.95;;;27.30;76.80;;;;;;4961156;29;20102;-82
2023/07/31 09:09:13;;;;;;;4.78;3.25;;;27.20;75.60;;;;;;4945861;29;20054;-81
2023/07/31 09:11:40;;;;;;;;;;;27.20;75.90;;;;;;4952864;28;20419;-84
2023/07/31 09:17:31;;;;;;;4.50;2.40;;;27.50;75.80;;;;;;4948589;29;20043;-90
2023/07/31 09:20:19;;;;;;;4.90;3.05;;;27.40;74.40;;;;;;4930423;29;20065;-91
2023/07/31 09:23:13;;;;;;;3.63;2.28;;;27.60;75.40;;;;;;4928163;29;20150;-86
2023/07/31 09:25:46;;;;;;;5.70;2.90;;;27.60;74.10;;;;;;4932455;29;20047;-90
2023/07/31 09:28:31;;;;;;;5.97;3.25;;;27.70;74.40;;;;;;4936965;29;20059;-89
2023/07/31 09:32:02;;;;;;;7.30;3.70;;;27.60;74.00;;;;;;4965472;28;20092;-91
2023/07/31 09:34:49;;;;;;;5.70;3.00;;;27.60;73.40;;;;;;4966607;29;20081;-87
2023/07/31 09:37:24;;;;;;;4.45;2.67;;;27.90;73.90;;;;;;4937004;29;20043;-86
2023/07/31 09:40:08;;;;;;;5.07;3.03;;;28.30;74.00;;;;;;4940958;29;20051;-85
2023/07/31 09:42:36;;;;;;;4.10;2.63;;;28.50;72.70;;;;;;4947994;29;20058;-86
2023/07/31 09:45:10;;;;;;;4.43;2.22;;;28.70;71.00;;;;;;4954341;29;20087;-88
2023/07/31 09:47:58;;;;;;;4.22;2.55;;;28.60;70.50;;;;;;4936517;29;20052;-88
2023/07/31 09:50:50;;;;;;;5.43;2.75;;;28.20;71.90;;;;;;4935447;29;20118;-90
2023/07/31 09:53:49;;;;;;;7.82;4.43;;;28.20;73.30;;;;;;4935551;29;20115;-89
2023/07/31 09:56:32;;;;;;;14.57;5.38;;;28.40;74.90;;;;;;4959890;29;20055;-89
2023/07/31 10:05:01;;;;;;;6.47;3.08;;;28.60;71.50;;;;;;4927018;29;20058;-92
2023/07/31 10:07:53;;;;;;;8.82;3.65;;;28.40;73.40;;;;;;4934566;29;20052;-86
2023/07/31 10:10:23;;;;;;;9.50;3.83;;;28.30;74.10;;;;;;4919617;29;20496;-88
2023/07/31 10:13:06;;;;;;;5.90;3.00;;;28.50;72.90;;;;;;4924858;29;20067;-88
2023/07/31 10:45:10;;;;;;;8.13;3.30;;;28.80;70.30;;;;;;4609753;26;20048;-87
2023/07/31 10:48:19;;;;;;;7.00;3.05;;;28.80;71.20;;;;;;4918841;29;20064;-88
2023/07/31 10:51:42;;;;;;;4.28;2.50;;;29.10;71.10;;;;;;4939721;29;20048;-91
2023/07/31 11:20:33;;;;;;;5.53;3.40;;;30.00;67.80;;;;;;5751453;23;20048;-87
2023/07/31 11:23:06;;;;;;;5.55;3.30;;;30.00;66.90;;;;;;4924681;29;20062;-87
2023/07/31 11:25:41;;;;;;;6.47;3.55;;;29.80;67.10;;;;;;4941784;29;20044;-88
2023/07/31 11:34:48;;;;;;;6.43;3.22;;;30.00;66.20;;;;;;4910472;23;20063;-91
2023/07/31 11:38:22;;;;;;;5.80;3.60;;;30.20;66.90;;;;;;4918791;29;20410;-90
2023/07/31 11:41:07;;;;;;;6.50;4.38;;;30.60;64.90;;;;;;4900797;29;20064;-92
2023/07/31 11:43:47;;;;;;;16.42;4.63;;;30.70;64.80;;;;;;4900217;29;20128;-91
2023/07/31 11:47:20;;;;;;;6.50;4.13;;;30.50;65.10;;;;;;4903627;29;20099;-90
2023/07/31 11:50:44;;;;;;;8.68;4.47;;;30.10;65.90;;;;;;4967236;23;20036;-93
2023/07/31 11:53:13;;;;;;;6.10;3.95;;;30.30;65.50;;;;;;4917374;29;20051;-85
2023/07/31 11:55:40;;;;;;;9.20;4.70;;;30.50;65.10;;;;;;4920443;29;21363;-84
2023/07/31 11:58:11;;;;;;;7.57;4.57;;;30.80;64.40;;;;;;4916408;29;20044;-84
2023/07/31 12:00:39;;;;;;;7.20;4.55;;;30.80;64.50;;;;;;4921160;29;20077;-85
2023/07/31 12:03:07;;;;;;;6.80;4.03;;;30.80;64.40;;;;;;4908771;29;20044;-84
2023/07/31 12:05:34;;;;;;;6.60;4.40;;;30.40;65.10;;;;;;4907902;29;20079;-80
2023/07/31 12:08:11;;;;;;;6.45;4.38;;;30.10;65.50;;;;;;4940694;29;20392;-83
2023/07/31 12:10:40;;;;;;;6.25;3.92;;;30.10;65.00;;;;;;4925845;29;20115;-85
2023/07/31 12:13:13;;;;;;;5.90;3.58;;;29.70;65.00;;;;;;4903221;29;20143;-82
2023/07/31 12:15:43;;;;;;;6.80;4.38;;;29.60;66.30;;;;;;4921038;29;20143;-81
2023/07/31 12:18:12;;;;;;;;;;;29.60;66.90;;;;;;4933731;29;20040;-81
2023/07/31 12:20:44;;;;;;;6.90;4.75;;;29.90;67.40;;;;;;4935884;29;19923;-79
2023/07/31 12:23:18;;;;;;;7.05;5.40;;;29.70;68.00;;;;;;4924497;29;20045;-89
2023/07/31 12:25:45;;;;;;;13.48;6.38;;;29.80;68.20;;;;;;4910382;29;20532;-83
2023/07/31 12:28:13;;;;;;;9.68;5.70;;;30.30;68.40;;;;;;4934541;29;20644;-83
2023/07/31 12:30:41;;;;;;;8.23;5.50;;;30.90;68.10;;;;;;4921090;29;20078;-86
2023/07/31 12:33:15;;;;;;;8.05;6.00;;;31.40;67.00;;;;;;4908676;29;20044;-80
2023/07/31 12:35:48;;;;;;;8.48;5.70;;;31.70;66.70;;;;;;4938022;29;20048;-80
2023/07/31 12:38:16;;;;;;;7.78;5.40;;;31.60;66.80;;;;;;4937598;29;20169;-80
2023/07/31 12:40:43;;;;;;;8.18;5.03;;;31.70;67.20;;;;;;4920092;29;20108;-81
2023/07/31 12:43:20;;;;;;;8.95;5.47;;;31.90;65.90;;;;;;4917485;29;20055;-80
2023/07/31 12:45:48;;;;;;;7.75;5.63;;;32.10;66.10;;;;;;4937543;29;20055;-81
2023/07/31 12:48:15;;;;;;;7.15;5.15;;;32.40;65.50;;;;;;4935262;29;20047;-80
2023/07/31 12:50:43;;;;;;;8.10;5.40;;;32.30;65.90;;;;;;4922535;29;20043;-80
2023/07/31 12:53:11;;;;;;;7.03;5.10;;;31.20;67.20;;;;;;4923655;29;20051;-82
2023/07/31 12:55:38;;;;;;;6.80;5.22;;;30.90;66.80;;;;;;4906446;29;20071;-84
2023/07/31 12:58:05;;;;;;;8.65;5.40;;;31.70;66.80;;;;;;4898024;29;20107;-83
2023/07/31 13:00:33;;;;;;;7.60;5.55;;;32.20;65.50;;;;;;4909224;29;20131;-80
2023/07/31 13:03:01;;;;;;;8.10;5.85;;;32.60;65.10;;;;;;4890600;29;20051;-81
2023/07/31 13:05:29;;;;;;;9.80;4.95;;;32.60;63.20;;;;;;4923678;29;20044;-80
2023/07/31 13:07:58;;;;;;;5.65;4.13;;;32.40;63.60;;;;;;4929710;29;20044;-83
2023/07/31 13:10:28;;;;;;;6.40;4.28;;;32.00;62.80;;;;;;4915399;29;20377;-78
2023/07/31 13:12:56;;;;;;;;;;;31.80;64.20;;;;;;4909649;29;20137;-80
2023/07/31 13:15:23;;;;;;;7.20;3.80;;;32.00;63.20;;;;;;4907695;29;19919;-82
2023/07/31 13:17:50;;;;;;;8.00;4.28;;;31.70;61.70;;;;;;4916825;29;20068;-81
2023/07/31 13:20:18;;;;;;;6.03;3.53;;;31.50;63.10;;;;;;4939813;29;20107;-88
2023/07/31 13:23:34;;;;;;;6.10;4.05;;;32.20;62.20;;;;;;4929843;29;20076;-81
2023/07/31 13:26:04;;;;;;;5.68;3.58;;;32.70;62.40;;;;;;4928406;29;20056;-87
2023/07/31 13:28:44;;;;;;;5.30;3.10;;;32.50;59.20;;;;;;4912518;29;20045;-86
2023/07/31 13:31:12;;;;;;;6.75;3.20;;;32.20;60.50;;;;;;4932943;29;20112;-83
2023/07/31 13:33:41;;;;;;;6.07;3.72;;;32.70;60.50;;;;;;4903844;29;20424;-83
2023/07/31 13:36:11;;;;;;;6.10;3.35;;;33.20;59.30;;;;;;4921064;29;20062;-84
2023/07/31 13:38:45;;;;;;;5.00;2.90;;;33.80;59.10;;;;;;4909806;29;20504;-84
2023/07/31 13:41:13;;;;;;;6.22;2.88;;;33.90;57.10;;;;;;4925901;29;20542;-84
2023/07/31 13:43:41;;;;;;;6.40;2.72;;;34.10;57.50;;;;;;4900469;29;20052;-85
2023/07/31 13:46:10;;;;;;;5.30;3.00;;;35.00;57.30;;;;;;4895000;29;20056;-85
2023/07/31 13:48:38;;;;;;;4.20;2.43;;;36.60;56.10;;;;;;4918632;29;20050;-84
2023/07/31 13:51:06;;;;;;;6.32;3.05;;;34.10;56.20;;;;;;4910095;29;20286;-84
2023/07/31 13:53:36;;;;;;;5.72;2.40;;;36.80;54.50;;;;;;4935380;29;20050;-84
2023/07/31 13:56:04;;;;;;;5.78;2.50;;;38.90;51.70;;;;;;4926274;29;20186;-84
2023/07/31 13:58:32;;;;;;;5.78;2.70;;;39.70;49.50;;;;;;4917644;29;20131;-83
2023/07/31 14:00:59;;;;;;;4.68;2.50;;;40.10;48.60;;;;;;4891732;29;20460;-84
2023/07/31 14:03:28;;;;;;;4.72;2.25;;;40.30;48.70;;;;;;4900521;29;20067;-84
2023/07/31 14:05:57;;;;;;;5.15;2.13;;;40.70;47.80;;;;;;4921454;29;20416;-86
2023/07/31 14:08:24;;;;;;;3.83;2.20;;;37.80;48.10;;;;;;4919010;29;20127;-84
2023/07/31 14:10:51;;;;;;;4.00;2.30;;;35.10;51.10;;;;;;4925665;29;20066;-83
2023/07/31 14:13:18;;;;;;;3.97;2.30;;;36.00;52.10;;;;;;4917357;29;20070;-85